createdAt,value
2019-01-19T00:01:04.070Z,17.96
2019-01-19T00:02:13.212Z,17.95
2019-01-19T00:03:22.294Z,18.08
2019-01-19T00:04:31.397Z,17.97
2019-01-19T00:05:40.470Z,18.03
2019-01-19T00:06:49.556Z,18.02
2019-01-19T00:07:58.762Z,17.97
2019-01-19T00:09:07.874Z,18.08
2019-01-19T00:10:16.712Z,17.95
2019-01-19T00:11:25.876Z,17.96
2019-01-19T00:12:34.967Z,18.07
2019-01-19T00:13:43.878Z,18
2019-01-19T00:14:53.255Z,17.97
2019-01-19T00:16:02.345Z,18.03
2019-01-19T00:17:11.700Z,18.02
2019-01-19T00:18:21.334Z,18.03
2019-01-19T00:19:30.492Z,18.02
2019-01-19T00:20:39.603Z,17.93
2019-01-19T00:21:48.711Z,17.97
2019-01-19T00:22:57.786Z,17.99
2019-01-19T00:24:07.148Z,18.07
2019-01-19T00:25:16.280Z,17.99
2019-01-19T00:26:25.649Z,18.07
2019-01-19T00:27:34.792Z,17.96
2019-01-19T00:28:44.145Z,17.99
2019-01-19T00:29:53.306Z,18.07
2019-01-19T00:31:02.492Z,18.02
2019-01-19T00:32:11.301Z,17.97
2019-01-19T00:33:20.122Z,17.97
2019-01-19T00:34:36.423Z,18.03
2019-01-19T00:35:45.523Z,17.95
2019-01-19T00:36:54.412Z,18.02
2019-01-19T00:38:03.240Z,18.02
2019-01-19T00:39:12.587Z,17.97
2019-01-19T00:40:21.695Z,18.02
2019-01-19T00:41:30.522Z,18
2019-01-19T00:42:40.003Z,18.03
2019-01-19T00:43:49.084Z,17.97
2019-01-19T00:44:57.899Z,17.97
2019-01-19T00:46:07.114Z,17.95
2019-01-19T00:47:15.931Z,17.9
2019-01-19T00:48:25.099Z,17.97
2019-01-19T00:49:34.478Z,17.95
2019-01-19T00:50:43.297Z,18.03
2019-01-19T00:51:52.130Z,18.03
2019-01-19T00:53:00.933Z,18.02
2019-01-19T00:54:10.111Z,17.9
2019-01-19T00:55:19.234Z,18
2019-01-19T00:56:28.081Z,17.9
2019-01-19T00:57:37.425Z,17.9
2019-01-19T00:58:46.768Z,17.87
2019-01-19T00:59:55.641Z,17.99
2019-01-19T01:01:04.784Z,17.95
2019-01-19T01:02:13.611Z,17.93
2019-01-19T01:03:22.976Z,17.93
2019-01-19T01:04:31.786Z,17.97
2019-01-19T01:05:40.961Z,17.96
2019-01-19T01:06:49.770Z,17.96
2019-01-19T01:07:58.847Z,17.95
2019-01-19T01:09:07.661Z,17.97
2019-01-19T01:10:17.002Z,17.96
2019-01-19T01:11:26.144Z,17.89
2019-01-19T01:12:35.507Z,18.02
2019-01-19T01:13:44.309Z,18.02
2019-01-19T01:14:53.139Z,17.92
2019-01-19T01:16:01.966Z,17.96
2019-01-19T01:17:11.110Z,17.93
2019-01-19T01:18:19.928Z,17.99
2019-01-19T01:19:28.737Z,17.97
2019-01-19T01:20:37.619Z,18.03
2019-01-19T01:21:46.699Z,17.99
2019-01-19T01:22:55.646Z,17.97
2019-01-19T01:24:04.737Z,17.97
2019-01-19T01:25:13.560Z,18.02
2019-01-19T01:26:22.931Z,17.95
2019-01-19T01:27:32.012Z,17.95
2019-01-19T01:28:40.890Z,17.9
2019-01-19T01:29:49.996Z,17.9
2019-01-19T01:30:58.823Z,17.92
2019-01-19T01:32:07.918Z,17.93
2019-01-19T01:33:17.035Z,17.92
2019-01-19T01:34:26.201Z,17.95
2019-01-19T01:35:37.332Z,17.87
2019-01-19T01:36:46.403Z,17.92
2019-01-19T01:37:55.216Z,17.93
2019-01-19T01:39:04.583Z,17.9
2019-01-19T01:40:13.505Z,17.89
2019-01-19T01:41:22.580Z,17.87
2019-01-19T01:42:31.681Z,17.82
2019-01-19T01:43:41.038Z,17.9
2019-01-19T01:44:50.123Z,17.87
2019-01-19T01:45:58.985Z,17.93
2019-01-19T01:47:07.801Z,17.86
2019-01-19T01:48:16.629Z,17.89
2019-01-19T01:49:25.439Z,17.87
2019-01-19T01:50:34.258Z,17.82
2019-01-19T01:51:43.426Z,17.87
2019-01-19T01:52:52.499Z,17.92
2019-01-19T01:54:01.575Z,17.92
2019-01-19T01:55:10.389Z,17.9
2019-01-19T01:56:19.455Z,17.84
2019-01-19T01:57:28.637Z,17.84
2019-01-19T01:58:37.711Z,17.97
2019-01-19T01:59:47.065Z,17.78
2019-01-19T02:00:56.452Z,17.87
2019-01-19T02:02:05.612Z,17.93
2019-01-19T02:03:14.706Z,17.77
2019-01-19T02:04:24.027Z,17.84
2019-01-19T02:05:40.018Z,17.87
2019-01-19T02:06:49.257Z,17.96
2019-01-19T02:07:58.103Z,17.82
2019-01-19T02:09:07.025Z,17.78
2019-01-19T02:10:16.101Z,17.81
2019-01-19T02:11:25.165Z,17.84
2019-01-19T02:12:33.977Z,17.84
2019-01-19T02:13:43.078Z,17.86
2019-01-19T02:14:52.277Z,17.84
2019-01-19T02:16:01.345Z,17.84
2019-01-19T02:17:10.163Z,17.87
2019-01-19T02:18:18.990Z,17.79
2019-01-19T02:19:27.806Z,17.86
2019-01-19T02:20:36.989Z,17.84
2019-01-19T02:21:46.347Z,17.82
2019-01-19T02:22:55.166Z,17.84
2019-01-19T02:24:04.258Z,17.84
2019-01-19T02:25:13.353Z,17.84
2019-01-19T02:26:22.535Z,17.84
2019-01-19T02:27:31.364Z,17.82
2019-01-19T02:28:40.764Z,17.81
2019-01-19T02:29:50.106Z,17.84
2019-01-19T02:30:59.223Z,17.87
2019-01-19T02:32:08.396Z,17.9
2019-01-19T02:33:17.252Z,17.71
2019-01-19T02:34:26.084Z,17.82
2019-01-19T02:35:34.897Z,17.86
2019-01-19T02:36:43.970Z,17.86
2019-01-19T02:37:53.114Z,17.84
2019-01-19T02:39:02.219Z,17.82
2019-01-19T02:40:11.311Z,17.86
2019-01-19T02:41:20.442Z,17.82
2019-01-19T02:42:29.251Z,17.81
2019-01-19T02:43:38.421Z,17.77
2019-01-19T02:44:47.270Z,17.79
2019-01-19T02:45:56.336Z,17.84
2019-01-19T02:47:05.967Z,17.74
2019-01-19T02:48:15.057Z,17.82
2019-01-19T02:49:23.987Z,17.75
2019-01-19T02:50:33.363Z,17.71
2019-01-19T02:51:42.478Z,17.75
2019-01-19T02:52:51.574Z,17.75
2019-01-19T02:54:00.924Z,17.72
2019-01-19T02:55:10.864Z,17.75
2019-01-19T02:56:19.969Z,17.71
2019-01-19T02:57:29.049Z,17.71
2019-01-19T02:58:38.139Z,17.84
2019-01-19T02:59:47.233Z,17.72
2019-01-19T03:00:56.148Z,17.71
2019-01-19T03:02:05.211Z,17.7
2019-01-19T03:03:14.290Z,17.68
2019-01-19T03:04:23.088Z,17.7
2019-01-19T03:05:31.932Z,17.71
2019-01-19T03:06:41.307Z,17.71
2019-01-19T03:07:50.117Z,17.74
2019-01-19T03:08:58.946Z,17.7
2019-01-19T03:10:08.144Z,17.7
2019-01-19T03:11:16.958Z,17.71
2019-01-19T03:12:25.881Z,17.77
2019-01-19T03:13:34.983Z,17.75
2019-01-19T03:14:43.822Z,17.79
2019-01-19T03:15:52.924Z,17.75
2019-01-19T03:17:01.824Z,17.71
2019-01-19T03:18:10.768Z,17.79
2019-01-19T03:19:20.132Z,17.77
2019-01-19T03:20:28.946Z,17.7
2019-01-19T03:21:38.035Z,17.63
2019-01-19T03:22:46.869Z,17.72
2019-01-19T03:23:55.680Z,17.75
2019-01-19T03:25:04.591Z,17.74
2019-01-19T03:26:13.970Z,17.74
2019-01-19T03:27:23.318Z,17.71
2019-01-19T03:28:32.402Z,17.74
2019-01-19T03:29:41.543Z,17.71
2019-01-19T03:30:50.644Z,17.78
2019-01-19T03:31:59.771Z,17.74
2019-01-19T03:33:09.207Z,17.68
2019-01-19T03:34:18.049Z,17.75
2019-01-19T03:35:27.492Z,17.68
2019-01-19T03:36:37.108Z,17.72
2019-01-19T03:37:45.954Z,17.66
2019-01-19T03:38:54.770Z,17.59
2019-01-19T03:40:03.606Z,17.66
2019-01-19T03:41:13.055Z,17.68
2019-01-19T03:42:22.166Z,17.66
2019-01-19T03:43:31.540Z,17.63
2019-01-19T03:44:41.140Z,17.56
2019-01-19T03:45:49.955Z,17.59
2019-01-19T03:46:59.215Z,17.72
2019-01-19T03:48:08.054Z,17.63
2019-01-19T03:49:17.428Z,17.72
2019-01-19T03:50:26.279Z,17.68
2019-01-19T03:51:35.362Z,17.55
2019-01-19T03:52:44.494Z,17.55
2019-01-19T03:53:53.604Z,17.63
2019-01-19T03:55:02.800Z,17.52
2019-01-19T03:56:11.642Z,17.52
2019-01-19T03:57:20.451Z,17.66
2019-01-19T03:58:29.378Z,17.62
2019-01-19T03:59:38.199Z,17.64
2019-01-19T04:00:47.028Z,17.58
2019-01-19T04:01:56.143Z,17.63
2019-01-19T04:03:05.303Z,17.58
2019-01-19T04:04:14.191Z,17.58
2019-01-19T04:05:23.288Z,17.55
2019-01-19T04:06:32.389Z,17.62
2019-01-19T04:07:41.742Z,17.56
2019-01-19T04:08:51.346Z,17.56
2019-01-19T04:10:00.257Z,17.56
2019-01-19T04:11:09.349Z,17.56
2019-01-19T04:12:18.445Z,17.58
2019-01-19T04:13:27.517Z,17.63
2019-01-19T04:14:36.635Z,17.66
2019-01-19T04:15:45.837Z,17.59
2019-01-19T04:16:54.959Z,17.56
2019-01-19T04:18:04.331Z,17.52
2019-01-19T04:19:13.176Z,17.55
2019-01-19T04:20:22.005Z,17.59
2019-01-19T04:21:31.707Z,17.56
2019-01-19T04:22:41.076Z,17.58
2019-01-19T04:23:50.169Z,17.62
2019-01-19T04:24:59.540Z,17.52
2019-01-19T04:26:08.917Z,17.52
2019-01-19T04:27:18.392Z,17.58
2019-01-19T04:28:27.201Z,17.52
2019-01-19T04:29:36.049Z,17.54
2019-01-19T04:30:44.883Z,17.54
2019-01-19T04:31:54.358Z,17.58
2019-01-19T04:33:03.531Z,17.55
2019-01-19T04:34:12.606Z,17.56
2019-01-19T04:35:21.688Z,17.54
2019-01-19T04:36:31.062Z,17.52
2019-01-19T04:37:39.891Z,17.54
2019-01-19T04:38:49.339Z,17.54
2019-01-19T04:39:58.683Z,17.54
2019-01-19T04:41:07.788Z,17.52
2019-01-19T04:42:16.913Z,17.52
2019-01-19T04:43:25.978Z,17.49
2019-01-19T04:44:34.818Z,17.56
2019-01-19T04:45:43.886Z,17.58
2019-01-19T04:46:52.692Z,17.52
2019-01-19T04:48:01.533Z,17.51
2019-01-19T04:49:10.625Z,17.54
2019-01-19T04:50:19.439Z,17.56
2019-01-19T04:51:28.251Z,17.54
2019-01-19T04:52:37.644Z,17.54
2019-01-19T04:53:46.486Z,17.56
2019-01-19T04:54:55.589Z,17.52
2019-01-19T04:56:04.762Z,17.51
2019-01-19T04:57:13.869Z,17.52
2019-01-19T04:58:22.675Z,17.55
2019-01-19T04:59:31.502Z,17.51
2019-01-19T05:00:41.111Z,17.55
2019-01-19T05:01:49.976Z,17.51
2019-01-19T05:02:58.806Z,17.49
2019-01-19T05:04:07.648Z,17.54
2019-01-19T05:05:16.723Z,17.51
2019-01-19T05:06:32.706Z,17.48
2019-01-19T05:07:41.836Z,17.55
2019-01-19T05:08:50.943Z,17.44
2019-01-19T05:10:00.032Z,17.46
2019-01-19T05:11:08.875Z,17.49
2019-01-19T05:12:17.700Z,17.51
2019-01-19T05:13:27.308Z,17.46
2019-01-19T05:14:36.131Z,17.41
2019-01-19T05:15:45.233Z,17.41
2019-01-19T05:16:54.628Z,17.41
2019-01-19T05:18:03.716Z,17.48
2019-01-19T05:19:13.158Z,17.52
2019-01-19T05:20:22.285Z,17.46
2019-01-19T05:21:31.407Z,17.46
2019-01-19T05:22:40.252Z,17.46
2019-01-19T05:23:49.331Z,17.43
2019-01-19T05:24:58.271Z,17.41
2019-01-19T05:26:07.090Z,17.48
2019-01-19T05:27:15.933Z,17.46
2019-01-19T05:28:24.773Z,17.43
2019-01-19T05:29:33.586Z,17.38
2019-01-19T05:30:42.667Z,17.44
2019-01-19T05:31:52.011Z,17.46
2019-01-19T05:33:01.388Z,17.44
2019-01-19T05:34:10.223Z,17.46
2019-01-19T05:35:19.331Z,17.44
2019-01-19T05:36:28.240Z,17.51
2019-01-19T05:37:45.122Z,17.46
2019-01-19T05:38:54.208Z,17.4
2019-01-19T05:40:03.030Z,17.4
2019-01-19T05:41:12.110Z,17.41
2019-01-19T05:42:21.586Z,17.49
2019-01-19T05:43:30.423Z,17.41
2019-01-19T05:44:39.251Z,17.46
2019-01-19T05:45:49.495Z,17.4
2019-01-19T05:46:58.582Z,17.48
2019-01-19T05:48:07.878Z,17.46
2019-01-19T05:49:17.225Z,17.38
2019-01-19T05:50:26.308Z,17.43
2019-01-19T05:51:35.137Z,17.43
2019-01-19T05:52:44.272Z,17.49
2019-01-19T05:53:53.733Z,17.4
2019-01-19T05:55:02.577Z,17.44
2019-01-19T05:56:11.407Z,17.41
2019-01-19T05:57:20.497Z,17.44
2019-01-19T05:58:29.868Z,17.37
2019-01-19T05:59:38.678Z,17.4
2019-01-19T06:00:47.766Z,17.49
2019-01-19T06:01:56.888Z,17.41
2019-01-19T06:03:05.963Z,17.48
2019-01-19T06:04:15.325Z,17.34
2019-01-19T06:05:24.252Z,17.37
2019-01-19T06:06:33.598Z,17.37
2019-01-19T06:07:44.043Z,17.38
2019-01-19T06:08:53.234Z,17.37
2019-01-19T06:10:02.380Z,17.44
2019-01-19T06:11:11.451Z,17.4
2019-01-19T06:12:20.559Z,17.34
2019-01-19T06:13:29.385Z,17.37
2019-01-19T06:14:38.217Z,17.37
2019-01-19T06:15:47.292Z,17.38
2019-01-19T06:16:56.496Z,17.46
2019-01-19T06:18:05.847Z,17.31
2019-01-19T06:19:15.243Z,17.36
2019-01-19T06:20:24.094Z,17.38
2019-01-19T06:21:32.941Z,17.33
2019-01-19T06:22:42.127Z,17.4
2019-01-19T06:23:51.491Z,17.43
2019-01-19T06:25:00.368Z,17.36
2019-01-19T06:26:09.476Z,17.37
2019-01-19T06:27:18.290Z,17.38
2019-01-19T06:28:27.483Z,17.38
2019-01-19T06:29:36.579Z,17.43
2019-01-19T06:30:45.655Z,17.43
2019-01-19T06:31:54.765Z,17.44
2019-01-19T06:33:03.620Z,17.43
2019-01-19T06:34:12.554Z,17.33
2019-01-19T06:35:21.660Z,17.34
2019-01-19T06:36:30.790Z,17.4
2019-01-19T06:37:39.630Z,17.34
2019-01-19T06:38:48.473Z,17.36
2019-01-19T06:39:57.377Z,17.33
2019-01-19T06:41:06.763Z,17.33
2019-01-19T06:42:15.583Z,17.38
2019-01-19T06:43:24.416Z,17.37
2019-01-19T06:44:33.256Z,17.38
2019-01-19T06:45:42.202Z,17.43
2019-01-19T06:46:51.551Z,17.41
2019-01-19T06:48:00.612Z,17.31
2019-01-19T06:49:09.411Z,17.36
2019-01-19T06:50:18.761Z,17.37
2019-01-19T06:51:27.918Z,17.38
2019-01-19T06:52:36.988Z,17.31
2019-01-19T06:53:46.078Z,17.38
2019-01-19T06:54:55.431Z,17.36
2019-01-19T06:56:04.791Z,17.37
2019-01-19T06:57:13.628Z,17.36
2019-01-19T06:58:22.458Z,17.34
2019-01-19T06:59:31.563Z,17.31
2019-01-19T07:00:40.406Z,17.36
2019-01-19T07:01:49.754Z,17.34
2019-01-19T07:02:58.692Z,17.31
2019-01-19T07:04:08.038Z,17.26
2019-01-19T07:05:17.131Z,17.33
2019-01-19T07:06:26.830Z,17.33
2019-01-19T07:07:36.190Z,17.3
2019-01-19T07:08:45.066Z,17.33
2019-01-19T07:09:54.194Z,17.31
2019-01-19T07:11:03.029Z,17.31
2019-01-19T07:12:11.845Z,17.3
2019-01-19T07:13:20.673Z,17.3
2019-01-19T07:14:29.840Z,17.26
2019-01-19T07:15:38.675Z,17.31
2019-01-19T07:16:47.515Z,17.26
2019-01-19T07:17:56.368Z,17.34
2019-01-19T07:19:05.199Z,17.36
2019-01-19T07:20:14.071Z,17.28
2019-01-19T07:21:22.882Z,17.3
2019-01-19T07:22:31.993Z,17.36
2019-01-19T07:23:40.824Z,17.36
2019-01-19T07:24:49.917Z,17.28
2019-01-19T07:25:59.124Z,17.28
2019-01-19T07:27:08.479Z,17.25
2019-01-19T07:28:17.308Z,17.3
2019-01-19T07:29:26.405Z,17.3
2019-01-19T07:30:35.506Z,17.26
2019-01-19T07:31:44.438Z,17.3
2019-01-19T07:32:53.275Z,17.3
2019-01-19T07:34:02.105Z,17.26
2019-01-19T07:35:10.957Z,17.26
2019-01-19T07:36:19.774Z,17.3
2019-01-19T07:37:28.661Z,17.26
2019-01-19T07:38:37.775Z,17.31
2019-01-19T07:39:46.591Z,17.3
2019-01-19T07:40:55.422Z,17.25
2019-01-19T07:42:04.248Z,17.28
2019-01-19T07:43:13.190Z,17.28
2019-01-19T07:44:22.283Z,17.37
2019-01-19T07:45:31.375Z,17.37
2019-01-19T07:46:40.184Z,17.3
2019-01-19T07:47:49.268Z,17.3
2019-01-19T07:48:58.140Z,17.31
2019-01-19T07:50:07.257Z,17.36
2019-01-19T07:51:16.347Z,17.37
2019-01-19T07:52:25.165Z,17.37
2019-01-19T07:53:33.986Z,17.37
2019-01-19T07:54:42.893Z,17.33
2019-01-19T07:55:51.998Z,17.33
2019-01-19T07:57:01.071Z,17.3
2019-01-19T07:58:10.167Z,17.36
2019-01-19T07:59:19.783Z,17.31
2019-01-19T08:00:28.690Z,17.36
2019-01-19T08:01:37.531Z,17.38
2019-01-19T08:02:47.159Z,17.41
2019-01-19T08:03:55.976Z,17.36
2019-01-19T08:05:05.043Z,17.31
2019-01-19T08:06:14.203Z,17.4
2019-01-19T08:07:23.022Z,17.3
2019-01-19T08:08:32.104Z,17.36
2019-01-19T08:09:41.191Z,17.36
2019-01-19T08:10:50.023Z,17.3
2019-01-19T08:11:58.873Z,17.37
2019-01-19T08:13:07.694Z,17.41
2019-01-19T08:14:16.511Z,17.37
2019-01-19T08:15:25.584Z,17.38
2019-01-19T08:16:36.194Z,17.38
2019-01-19T08:17:45.337Z,17.38
2019-01-19T08:18:54.683Z,17.43
2019-01-19T08:20:03.782Z,17.33
2019-01-19T08:21:13.470Z,17.41
2019-01-19T08:22:22.548Z,17.34
2019-01-19T08:23:31.466Z,17.37
2019-01-19T08:24:40.304Z,17.41
2019-01-19T08:25:49.178Z,17.37
2019-01-19T08:26:58.011Z,17.34
2019-01-19T08:28:07.117Z,17.38
2019-01-19T08:29:16.278Z,17.3
2019-01-19T08:30:25.444Z,17.41
2019-01-19T08:31:34.549Z,17.38
2019-01-19T08:32:43.631Z,17.38
2019-01-19T08:33:52.746Z,17.41
2019-01-19T08:35:02.530Z,17.36
2019-01-19T08:36:11.349Z,17.37
2019-01-19T08:37:26.621Z,17.38
2019-01-19T08:38:35.440Z,17.4
2019-01-19T08:39:44.547Z,17.3
2019-01-19T08:40:53.714Z,17.33
2019-01-19T08:42:03.293Z,17.37
2019-01-19T08:43:12.380Z,17.33
2019-01-19T08:44:21.476Z,17.36
2019-01-19T08:45:30.817Z,17.41
2019-01-19T08:46:39.689Z,17.34
2019-01-19T08:47:48.511Z,17.41
2019-01-19T08:48:57.340Z,17.37
2019-01-19T08:50:06.426Z,17.33
2019-01-19T08:51:16.488Z,17.41
2019-01-19T08:52:25.875Z,17.43
2019-01-19T08:53:34.689Z,17.36
2019-01-19T08:54:43.502Z,17.37
2019-01-19T08:55:52.870Z,17.4
2019-01-19T08:57:02.214Z,17.38
2019-01-19T08:58:11.405Z,17.4
2019-01-19T08:59:20.244Z,17.36
2019-01-19T09:00:29.347Z,17.44
2019-01-19T09:01:38.431Z,17.37
2019-01-19T09:02:47.529Z,17.31
2019-01-19T09:03:56.448Z,17.36
2019-01-19T09:05:05.538Z,17.46
2019-01-19T09:06:14.622Z,17.44
2019-01-19T09:07:27.043Z,17.37
2019-01-19T09:08:42.656Z,17.44
2019-01-19T09:09:51.589Z,17.43
2019-01-19T09:11:00.701Z,17.41
2019-01-19T09:12:09.858Z,17.4
2019-01-19T09:13:18.947Z,17.43
2019-01-19T09:14:28.045Z,17.41
2019-01-19T09:15:36.933Z,17.41
2019-01-19T09:16:46.155Z,17.37
2019-01-19T09:17:55.273Z,17.43
2019-01-19T09:19:04.368Z,17.4
2019-01-19T09:20:13.176Z,17.48
2019-01-19T09:21:22.348Z,17.46
2019-01-19T09:22:32.068Z,17.48
2019-01-19T09:23:40.946Z,17.41
2019-01-19T09:24:50.041Z,17.43
2019-01-19T09:25:58.854Z,17.51
2019-01-19T09:27:08.042Z,17.46
2019-01-19T09:28:16.883Z,17.49
2019-01-19T09:29:25.946Z,17.41
2019-01-19T09:30:35.008Z,17.44
2019-01-19T09:31:44.837Z,17.44
2019-01-19T09:32:54.053Z,17.44
2019-01-19T09:34:03.391Z,17.48
2019-01-19T09:35:12.228Z,17.43
2019-01-19T09:36:21.608Z,17.44
2019-01-19T09:37:30.682Z,17.49
2019-01-19T09:38:45.692Z,17.43
2019-01-19T09:39:54.517Z,17.52
2019-01-19T09:41:03.878Z,17.44
2019-01-19T09:42:13.287Z,17.49
2019-01-19T09:43:22.723Z,17.49
2019-01-19T09:44:32.143Z,17.48
2019-01-19T09:45:41.227Z,17.51
2019-01-19T09:46:50.847Z,17.4
2019-01-19T09:48:00.180Z,17.48
2019-01-19T09:49:09.017Z,17.52
2019-01-19T09:50:18.472Z,17.49
2019-01-19T09:51:27.544Z,17.52
2019-01-19T09:52:36.364Z,17.52
2019-01-19T09:53:45.462Z,17.55
2019-01-19T09:54:54.283Z,17.51
2019-01-19T09:56:03.165Z,17.56
2019-01-19T09:57:12.526Z,17.51
2019-01-19T09:58:21.882Z,17.54
2019-01-19T09:59:30.943Z,17.55
2019-01-19T10:00:47.827Z,17.52
2019-01-19T10:01:56.685Z,17.49
2019-01-19T10:03:05.527Z,17.55
2019-01-19T10:04:14.864Z,17.54
2019-01-19T10:05:23.993Z,17.55
2019-01-19T10:06:33.083Z,17.54
2019-01-19T10:07:48.388Z,17.51
2019-01-19T10:08:57.522Z,17.51
2019-01-19T10:10:06.611Z,17.59
2019-01-19T10:11:15.687Z,17.54
2019-01-19T10:12:24.538Z,17.59
2019-01-19T10:13:34.204Z,17.56
2019-01-19T10:14:43.971Z,17.55
2019-01-19T10:15:53.054Z,17.62
2019-01-19T10:17:01.867Z,17.51
2019-01-19T10:18:10.964Z,17.62
2019-01-19T10:19:20.426Z,17.51
2019-01-19T10:20:30.051Z,17.66
2019-01-19T10:21:38.857Z,17.56
2019-01-19T10:22:47.672Z,17.66
2019-01-19T10:23:56.498Z,17.58
2019-01-19T10:25:05.362Z,17.58
2019-01-19T10:26:14.703Z,17.63
2019-01-19T10:27:23.517Z,17.59
2019-01-19T10:28:32.327Z,17.59
2019-01-19T10:29:41.404Z,17.62
2019-01-19T10:30:51.501Z,17.56
2019-01-19T10:32:00.407Z,17.56
2019-01-19T10:33:09.522Z,17.59
2019-01-19T10:34:18.356Z,17.59
2019-01-19T10:35:27.439Z,17.72
2019-01-19T10:36:36.917Z,17.75
2019-01-19T10:37:45.764Z,17.77
2019-01-19T10:39:01.232Z,17.72
2019-01-19T10:40:10.051Z,17.74
2019-01-19T10:41:19.137Z,17.82
2019-01-19T10:42:28.054Z,17.86
2019-01-19T10:43:37.420Z,17.79
2019-01-19T10:44:46.259Z,17.86
2019-01-19T10:45:55.338Z,17.86
2019-01-19T10:47:04.443Z,17.9
2019-01-19T10:48:13.255Z,17.97
2019-01-19T10:49:22.087Z,18
2019-01-19T10:50:30.934Z,18.05
2019-01-19T10:51:40.024Z,18
2019-01-19T10:52:49.113Z,18.03
2019-01-19T10:53:58.255Z,18.1
2019-01-19T10:55:07.100Z,18
2019-01-19T10:56:16.193Z,18.1
2019-01-19T10:57:25.807Z,18.07
2019-01-19T10:58:34.900Z,18.15
2019-01-19T10:59:44.091Z,18.18
2019-01-19T11:00:53.187Z,18.2
2019-01-19T11:02:02.603Z,18.26
2019-01-19T11:03:11.501Z,18.26
2019-01-19T11:04:20.869Z,18.33
2019-01-19T11:05:29.745Z,18.33
2019-01-19T11:06:38.819Z,18.33
2019-01-19T11:07:47.903Z,18.37
2019-01-19T11:08:57.232Z,18.39
2019-01-19T11:10:06.315Z,18.45
2019-01-19T11:11:15.506Z,18.47
2019-01-19T11:12:24.325Z,18.44
2019-01-19T11:13:33.681Z,18.44
2019-01-19T11:14:42.501Z,18.52
2019-01-19T11:15:51.864Z,18.48
2019-01-19T11:17:01.033Z,18.62
2019-01-19T11:18:10.172Z,18.55
2019-01-19T11:19:19.237Z,18.65
2019-01-19T11:20:28.063Z,18.63
2019-01-19T11:21:37.139Z,18.67
2019-01-19T11:22:46.315Z,18.76
2019-01-19T11:23:55.186Z,18.73
2019-01-19T11:25:04.276Z,18.85
2019-01-19T11:26:13.660Z,18.85
2019-01-19T11:27:22.998Z,18.81
2019-01-19T11:28:31.917Z,18.88
2019-01-19T11:29:40.735Z,18.88
2019-01-19T11:30:49.548Z,18.91
2019-01-19T11:31:58.648Z,18.91
2019-01-19T11:33:07.991Z,19.02
2019-01-19T11:34:17.192Z,19.02
2019-01-19T11:35:26.062Z,19.04
2019-01-19T11:36:35.419Z,19.14
2019-01-19T11:37:44.217Z,19.14
2019-01-19T11:38:53.056Z,19.11
2019-01-19T11:40:02.128Z,19.22
2019-01-19T11:41:11.213Z,19.25
2019-01-19T11:42:20.024Z,19.31
2019-01-19T11:43:28.834Z,19.29
2019-01-19T11:44:37.929Z,19.32
2019-01-19T11:45:46.993Z,19.54
2019-01-19T11:46:55.834Z,19.59
2019-01-19T11:48:04.668Z,19.68
2019-01-19T11:49:13.750Z,19.8
2019-01-19T11:50:23.143Z,20.01
2019-01-19T11:51:32.547Z,20.11
2019-01-19T11:52:41.885Z,20.33
2019-01-19T11:53:51.494Z,20.59
2019-01-19T11:55:00.833Z,20.82
2019-01-19T11:56:16.444Z,20.92
2019-01-19T11:57:25.336Z,21.14
2019-01-19T11:58:34.138Z,21.37
2019-01-19T11:59:43.220Z,21.47
2019-01-19T12:00:52.032Z,21.61
2019-01-19T12:02:01.101Z,21.72
2019-01-19T12:03:10.185Z,21.91
2019-01-19T12:04:19.265Z,22.02
2019-01-19T12:05:28.109Z,22.22
2019-01-19T12:06:36.943Z,22.18
2019-01-19T12:07:46.030Z,22.07
2019-01-19T12:08:55.294Z,21.99
2019-01-19T12:10:04.180Z,21.77
2019-01-19T12:11:13.531Z,21.68
2019-01-19T12:12:23.128Z,21.5
2019-01-19T12:13:31.941Z,21.38
2019-01-19T12:14:40.759Z,21.24
2019-01-19T12:15:49.860Z,21.09
2019-01-19T12:16:58.715Z,21.07
2019-01-19T12:18:07.526Z,20.85
2019-01-19T12:19:18.256Z,20.69
2019-01-19T12:20:27.365Z,20.61
2019-01-19T12:21:36.427Z,20.52
2019-01-19T12:22:45.789Z,20.43
2019-01-19T12:23:54.662Z,20.29
2019-01-19T12:25:03.486Z,20.26
2019-01-19T12:26:12.679Z,20.14
2019-01-19T12:27:21.511Z,20.03
2019-01-19T12:28:30.607Z,19.99
2019-01-19T12:29:39.463Z,20.03
2019-01-19T12:30:48.811Z,19.95
2019-01-19T12:32:00.130Z,19.91
2019-01-19T12:33:09.742Z,19.92
2019-01-19T12:34:18.847Z,19.86
2019-01-19T12:35:28.205Z,19.78
2019-01-19T12:36:37.287Z,19.8
2019-01-19T12:37:46.350Z,19.74
2019-01-19T12:38:55.458Z,19.66
2019-01-19T12:40:04.290Z,19.76
2019-01-19T12:41:13.649Z,19.56
2019-01-19T12:42:23.002Z,19.63
2019-01-19T12:43:32.151Z,19.59
2019-01-19T12:44:41.252Z,19.58
2019-01-19T12:45:50.630Z,19.55
2019-01-19T12:46:59.738Z,19.55
2019-01-19T12:48:08.586Z,19.61
2019-01-19T12:49:18.949Z,19.44
2019-01-19T12:50:27.821Z,19.55
2019-01-19T12:51:36.897Z,19.46
2019-01-19T12:52:45.732Z,19.51
2019-01-19T12:53:55.402Z,19.46
2019-01-19T12:55:04.872Z,19.47
2019-01-19T12:56:13.967Z,19.54
2019-01-19T12:57:22.779Z,19.46
2019-01-19T12:58:31.589Z,19.47
2019-01-19T12:59:40.693Z,19.46
2019-01-19T13:00:49.569Z,19.37
2019-01-19T13:01:58.696Z,19.4
2019-01-19T13:03:07.791Z,19.44
2019-01-19T13:04:17.413Z,19.44
2019-01-19T13:05:26.252Z,19.39
2019-01-19T13:06:35.601Z,19.43
2019-01-19T13:07:44.423Z,19.4
2019-01-19T13:08:53.264Z,19.39
2019-01-19T13:10:02.409Z,19.36
2019-01-19T13:11:11.503Z,19.32
2019-01-19T13:12:21.970Z,19.37
2019-01-19T13:13:30.792Z,19.26
2019-01-19T13:14:39.600Z,19.33
2019-01-19T13:15:48.444Z,19.39
2019-01-19T13:16:57.267Z,19.26
2019-01-19T13:18:06.403Z,19.29
2019-01-19T13:19:15.499Z,19.33
2019-01-19T13:20:24.866Z,19.28
2019-01-19T13:21:33.965Z,19.31
2019-01-19T13:22:43.049Z,19.33
2019-01-19T13:23:53.157Z,19.33
2019-01-19T13:25:01.998Z,19.31
2019-01-19T13:26:11.072Z,19.28
2019-01-19T13:27:20.172Z,19.29
2019-01-19T13:28:29.506Z,19.28
2019-01-19T13:29:38.633Z,19.31
2019-01-19T13:30:48.257Z,19.22
2019-01-19T13:31:57.086Z,19.23
2019-01-19T13:33:06.178Z,19.22
2019-01-19T13:34:15.249Z,19.21
2019-01-19T13:35:24.124Z,19.23
2019-01-19T13:36:32.959Z,19.23
2019-01-19T13:37:41.779Z,19.21
2019-01-19T13:38:50.852Z,19.13
2019-01-19T13:39:59.670Z,19.19
2019-01-19T13:41:09.361Z,19.21
2019-01-19T13:42:18.679Z,19.18
2019-01-19T13:43:27.511Z,19.13
2019-01-19T13:44:36.335Z,19.16
2019-01-19T13:45:45.420Z,19.18
2019-01-19T13:46:54.615Z,19.14
2019-01-19T13:48:04.022Z,19.18
2019-01-19T13:49:13.092Z,19.16
2019-01-19T13:50:22.174Z,19.08
2019-01-19T13:51:30.991Z,19.13
2019-01-19T13:52:40.021Z,19.11
2019-01-19T13:53:49.051Z,19.07
2019-01-19T13:54:57.878Z,19.16
2019-01-19T13:56:06.975Z,19.11
2019-01-19T13:57:16.215Z,19.14
2019-01-19T13:58:25.400Z,19.13
2019-01-19T13:59:34.220Z,19.14
2019-01-19T14:00:43.309Z,19.08
2019-01-19T14:01:52.905Z,19.11
2019-01-19T14:03:01.729Z,19.13
2019-01-19T14:04:10.654Z,19.13
2019-01-19T14:05:19.462Z,19.1
2019-01-19T14:06:28.547Z,19.14
2019-01-19T14:07:37.677Z,19.13
2019-01-19T14:08:53.528Z,19.13
2019-01-19T14:10:02.446Z,19.07
2019-01-19T14:11:11.270Z,19.14
2019-01-19T14:12:20.608Z,19.11
2019-01-19T14:13:29.432Z,19.06
2019-01-19T14:14:38.258Z,19.06
2019-01-19T14:15:47.178Z,19.04
2019-01-19T14:16:56.580Z,19.02
2019-01-19T14:18:05.418Z,19.11
2019-01-19T14:19:14.521Z,19.02
2019-01-19T14:20:23.387Z,19.04
2019-01-19T14:21:32.586Z,18.99
2019-01-19T14:22:41.390Z,19.06
2019-01-19T14:23:50.470Z,19.04
2019-01-19T14:24:59.809Z,19.02
2019-01-19T14:26:08.619Z,19.02
2019-01-19T14:27:17.444Z,19.02
2019-01-19T14:28:26.281Z,19.08
2019-01-19T14:29:35.109Z,18.94
2019-01-19T14:30:43.978Z,18.94
2019-01-19T14:31:52.799Z,19
2019-01-19T14:33:02.199Z,19.04
2019-01-19T14:34:11.030Z,19.02
2019-01-19T14:35:21.429Z,18.99
2019-01-19T14:36:30.644Z,18.99
2019-01-19T14:37:39.728Z,18.94
2019-01-19T14:38:48.598Z,18.98
2019-01-19T14:40:03.817Z,18.98
2019-01-19T14:41:12.907Z,18.94
2019-01-19T14:42:21.986Z,18.94
2019-01-19T14:43:31.091Z,18.92
2019-01-19T14:44:40.243Z,18.88
2019-01-19T14:45:49.317Z,18.88
2019-01-19T14:46:58.420Z,18.87
2019-01-19T14:48:07.489Z,18.9
2019-01-19T14:49:16.837Z,18.85
2019-01-19T14:50:26.170Z,18.88
2019-01-19T14:51:36.864Z,18.81
2019-01-19T14:52:46.013Z,18.82
2019-01-19T14:53:55.080Z,18.82
2019-01-19T14:55:04.435Z,18.84